createdAt,value
2016-12-11T00:00:44.992Z,0
2016-12-11T00:01:44.992Z,0
2016-12-11T00:02:44.982Z,0
2016-12-11T00:03:44.975Z,0
2016-12-11T00:04:44.977Z,0
2016-12-11T00:05:44.958Z,0
2016-12-11T00:06:44.955Z,0
2016-12-11T00:07:45.248Z,0
2016-12-11T00:08:44.926Z,0
2016-12-11T00:09:45.233Z,0
2016-12-11T00:10:44.922Z,0
2016-12-11T00:11:44.898Z,0
2016-12-11T00:12:44.900Z,0
2016-12-11T00:13:44.896Z,0
2016-12-11T00:14:44.878Z,0
2016-12-11T00:15:44.874Z,0
2016-12-11T00:16:44.859Z,0
2016-12-11T00:17:44.859Z,0
2016-12-11T00:18:44.857Z,0
2016-12-11T00:19:44.842Z,0
2016-12-11T00:20:44.829Z,0
2016-12-11T00:21:44.820Z,0
2016-12-11T00:22:44.814Z,0
2016-12-11T00:23:44.810Z,0
2016-12-11T00:24:44.798Z,0
2016-12-11T00:25:44.791Z,0
2016-12-11T00:26:44.777Z,0
2016-12-11T00:27:44.778Z,0
2016-12-11T00:28:45.075Z,0
2016-12-11T00:29:44.771Z,0
2016-12-11T00:30:44.757Z,0
2016-12-11T00:31:44.747Z,0
2016-12-11T00:32:44.730Z,0
2016-12-11T00:33:44.730Z,0
2016-12-11T00:34:44.718Z,0
2016-12-11T00:35:44.711Z,0
2016-12-11T00:36:44.711Z,0
2016-12-11T00:37:44.694Z,0
2016-12-11T00:38:44.983Z,0
2016-12-11T00:39:44.669Z,0
2016-12-11T00:40:44.661Z,0
2016-12-11T00:41:44.655Z,0
2016-12-11T00:42:44.649Z,0
2016-12-11T00:43:44.942Z,0
2016-12-11T00:44:44.625Z,0
2016-12-11T00:45:44.623Z,0
2016-12-11T00:46:44.619Z,0
2016-12-11T00:47:44.903Z,0
2016-12-11T00:48:44.593Z,0
2016-12-11T00:49:44.594Z,0
2016-12-11T00:50:44.874Z,0
2016-12-11T00:51:44.579Z,0
2016-12-11T00:52:44.576Z,0
2016-12-11T00:53:44.557Z,0
2016-12-11T00:54:44.550Z,0
2016-12-11T00:55:44.564Z,0
2016-12-11T00:56:45.126Z,0
2016-12-11T00:57:44.531Z,0
2016-12-11T00:58:44.520Z,0
2016-12-11T00:59:44.512Z,0
2016-12-11T01:00:44.499Z,0
2016-12-11T01:01:44.497Z,0
2016-12-11T01:02:44.481Z,0
2016-12-11T01:03:44.772Z,0
2016-12-11T01:04:44.461Z,0
2016-12-11T01:05:44.457Z,0
2016-12-11T01:06:44.748Z,0
2016-12-11T01:07:44.434Z,0
2016-12-11T01:08:44.427Z,0
2016-12-11T01:09:44.419Z,0
2016-12-11T01:10:44.412Z,0
2016-12-11T01:11:44.397Z,0
2016-12-11T01:12:44.424Z,0
2016-12-11T01:13:44.393Z,0
2016-12-11T01:14:44.678Z,0
2016-12-11T01:15:44.361Z,0
2016-12-11T01:16:44.366Z,0
2016-12-11T01:17:44.350Z,0
2016-12-11T01:18:44.347Z,0
2016-12-11T01:19:44.635Z,0
2016-12-11T01:20:44.327Z,0
2016-12-11T01:21:44.318Z,0
2016-12-11T01:22:44.308Z,0
2016-12-11T01:23:44.326Z,0
2016-12-11T01:24:44.293Z,0
2016-12-11T01:25:44.589Z,0
2016-12-11T01:26:44.279Z,0
2016-12-11T01:27:44.268Z,0
2016-12-11T01:28:44.256Z,0
2016-12-11T01:29:44.247Z,0
2016-12-11T01:30:44.246Z,0
2016-12-11T01:31:44.240Z,0
2016-12-11T01:32:44.229Z,0
2016-12-11T01:33:44.221Z,0
2016-12-11T01:34:44.208Z,0
2016-12-11T01:35:44.500Z,0
2016-12-11T01:36:44.188Z,0
2016-12-11T01:37:44.181Z,0
2016-12-11T01:38:44.171Z,0
2016-12-11T01:39:44.186Z,0
2016-12-11T01:40:44.154Z,0
2016-12-11T01:41:44.153Z,0
2016-12-11T01:42:44.140Z,0
2016-12-11T01:43:44.128Z,0
2016-12-11T01:44:44.128Z,0
2016-12-11T01:45:44.116Z,0
2016-12-11T01:46:44.102Z,0
2016-12-11T01:47:44.096Z,0
2016-12-11T01:48:44.389Z,0
2016-12-11T01:49:44.386Z,0
2016-12-11T01:50:44.065Z,0
2016-12-11T01:51:44.052Z,0
2016-12-11T01:52:44.059Z,0
2016-12-11T01:53:44.047Z,0
2016-12-11T01:54:44.029Z,0
2016-12-11T01:55:44.025Z,0
2016-12-11T01:56:44.009Z,0
2016-12-11T01:57:44.009Z,0
2016-12-11T01:58:43.991Z,0
2016-12-11T01:59:43.993Z,0
2016-12-11T02:00:43.980Z,0
2016-12-11T02:01:43.976Z,0
2016-12-11T02:02:44.266Z,0
2016-12-11T02:03:43.951Z,0
2016-12-11T02:04:43.949Z,0
2016-12-11T02:05:43.933Z,0
2016-12-11T02:06:44.229Z,0
2016-12-11T02:07:43.919Z,0
2016-12-11T02:08:43.906Z,0
2016-12-11T02:09:43.896Z,0
2016-12-11T02:10:43.898Z,0
2016-12-11T02:11:43.882Z,0
2016-12-11T02:12:43.878Z,0
2016-12-11T02:13:43.870Z,0
2016-12-11T02:14:43.855Z,0
2016-12-11T02:15:43.873Z,0
2016-12-11T02:16:43.832Z,0
2016-12-11T02:17:43.835Z,0
2016-12-11T02:18:44.115Z,0
2016-12-11T02:19:43.801Z,0
2016-12-11T02:20:43.810Z,0
2016-12-11T02:21:43.790Z,0
2016-12-11T02:22:43.783Z,0
2016-12-11T02:23:43.775Z,0
2016-12-11T02:24:43.771Z,0
2016-12-11T02:25:43.758Z,0
2016-12-11T02:26:43.752Z,0
2016-12-11T02:27:43.743Z,0
2016-12-11T02:28:43.726Z,0
2016-12-11T02:29:43.721Z,0
2016-12-11T02:30:43.717Z,0
2016-12-11T02:31:43.693Z,0
2016-12-11T02:32:43.693Z,0
2016-12-11T02:33:43.683Z,0
2016-12-11T02:34:43.986Z,0
2016-12-11T02:35:43.979Z,0
2016-12-11T02:36:43.659Z,0
2016-12-11T02:37:43.644Z,0
2016-12-11T02:38:43.635Z,0
2016-12-11T02:39:43.633Z,0
2016-12-11T02:40:43.623Z,0
2016-12-11T02:41:43.609Z,0
2016-12-11T02:42:43.592Z,0
2016-12-11T02:43:43.620Z,0
2016-12-11T02:44:43.588Z,0
2016-12-11T02:45:43.577Z,0
2016-12-11T02:46:43.559Z,0
2016-12-11T02:47:43.551Z,0
2016-12-11T02:48:43.547Z,0
2016-12-11T02:49:43.840Z,0
2016-12-11T02:50:43.535Z,0
2016-12-11T02:51:43.517Z,0
2016-12-11T02:52:43.510Z,0
2016-12-11T02:53:43.532Z,0
2016-12-11T02:54:43.488Z,0
2016-12-11T02:55:43.483Z,0
2016-12-11T02:56:43.471Z,0
2016-12-11T02:57:43.459Z,0
2016-12-11T02:58:43.456Z,0
2016-12-11T02:59:43.447Z,0
2016-12-11T03:00:43.454Z,0
2016-12-11T03:01:43.438Z,0
2016-12-11T03:02:43.415Z,0
2016-12-11T03:03:43.404Z,0
2016-12-11T03:04:43.432Z,0
2016-12-11T03:05:43.382Z,0
2016-12-11T03:06:43.381Z,0
2016-12-11T03:07:43.377Z,0
2016-12-11T03:08:43.364Z,0
2016-12-11T03:09:43.656Z,0
2016-12-11T03:10:43.342Z,0
2016-12-11T03:11:43.332Z,0
2016-12-11T03:12:43.331Z,0
2016-12-11T03:13:43.312Z,0
2016-12-11T03:14:43.329Z,0
2016-12-11T03:15:43.295Z,0
2016-12-11T03:16:43.288Z,0
2016-12-11T03:17:43.276Z,0
2016-12-11T03:18:43.269Z,0
2016-12-11T03:19:43.252Z,0
2016-12-11T03:20:43.249Z,0
2016-12-11T03:21:43.242Z,0
2016-12-11T03:22:43.238Z,0
2016-12-11T03:23:43.230Z,0
2016-12-11T03:24:43.210Z,0
2016-12-11T03:25:43.195Z,0
2016-12-11T03:26:43.195Z,0
2016-12-11T03:27:43.180Z,0
2016-12-11T03:28:43.178Z,0
2016-12-11T03:29:43.173Z,0
2016-12-11T03:30:43.150Z,0
2016-12-11T03:31:43.151Z,0
2016-12-11T03:32:43.134Z,0
2016-12-11T03:33:43.129Z,0
2016-12-11T03:34:43.115Z,0
2016-12-11T03:35:43.142Z,0
2016-12-11T03:36:43.098Z,0
2016-12-11T03:37:43.094Z,0
2016-12-11T03:38:43.083Z,0
2016-12-11T03:39:43.077Z,0
2016-12-11T03:40:43.065Z,0
2016-12-11T03:41:43.064Z,0
2016-12-11T03:42:43.049Z,0
2016-12-11T03:43:43.067Z,0
2016-12-11T03:44:43.036Z,0
2016-12-11T03:45:43.017Z,0
2016-12-11T03:46:43.015Z,0
2016-12-11T03:47:43.010Z,0
2016-12-11T03:48:42.989Z,0
2016-12-11T03:49:42.979Z,0
2016-12-11T03:50:42.965Z,0
2016-12-11T03:51:42.971Z,0
2016-12-11T03:52:42.958Z,0
2016-12-11T03:53:43.256Z,0
2016-12-11T03:54:42.940Z,0
2016-12-11T03:55:42.933Z,0
2016-12-11T03:56:42.927Z,0
2016-12-11T03:57:42.938Z,0
2016-12-11T03:58:42.901Z,0
2016-12-11T03:59:43.190Z,0
2016-12-11T04:00:42.873Z,0
2016-12-11T04:01:42.871Z,0
2016-12-11T04:02:42.861Z,0
2016-12-11T04:03:42.846Z,0
2016-12-11T04:04:42.841Z,0
2016-12-11T04:05:42.830Z,0
2016-12-11T04:06:42.829Z,0
2016-12-11T04:07:42.811Z,0
2016-12-11T04:08:42.803Z,0
2016-12-11T04:09:42.794Z,0
2016-12-11T04:10:42.790Z,0
2016-12-11T04:11:42.773Z,0
2016-12-11T04:12:43.067Z,0
2016-12-11T04:13:42.759Z,0
2016-12-11T04:14:42.745Z,0
2016-12-11T04:15:42.737Z,0
2016-12-11T04:16:42.728Z,0
2016-12-11T04:17:42.724Z,0
2016-12-11T04:18:42.711Z,0
2016-12-11T04:19:42.706Z,0
2016-12-11T04:20:42.696Z,0
2016-12-11T04:21:42.680Z,0
2016-12-11T04:22:42.667Z,0
2016-12-11T04:23:42.972Z,0
2016-12-11T04:24:42.652Z,0
2016-12-11T04:25:42.639Z,0
2016-12-11T04:26:42.644Z,0
2016-12-11T04:27:42.623Z,0
2016-12-11T04:28:42.614Z,0
2016-12-11T04:29:42.602Z,0
2016-12-11T04:30:42.629Z,0
2016-12-11T04:31:42.607Z,0
2016-12-11T04:32:42.581Z,0
2016-12-11T04:33:42.566Z,0
2016-12-11T04:34:42.562Z,0
2016-12-11T04:35:42.548Z,0
2016-12-11T04:36:42.539Z,0
2016-12-11T04:37:42.538Z,0
2016-12-11T04:38:42.520Z,0
2016-12-11T04:39:42.519Z,0
2016-12-11T04:40:42.506Z,0
2016-12-11T04:41:42.498Z,0
2016-12-11T04:42:42.484Z,0
2016-12-11T04:43:42.474Z,0
2016-12-11T04:44:42.465Z,0
2016-12-11T04:45:42.487Z,0
2016-12-11T04:46:42.450Z,0
2016-12-11T04:47:42.441Z,0
2016-12-11T04:48:42.441Z,0
2016-12-11T04:49:42.418Z,0
2016-12-11T04:50:42.403Z,0
2016-12-11T04:51:42.403Z,0
2016-12-11T04:52:42.393Z,0
2016-12-11T04:53:42.386Z,0
2016-12-11T04:54:42.369Z,0
2016-12-11T04:55:42.362Z,0
2016-12-11T04:56:42.355Z,0
2016-12-11T04:57:42.353Z,0
2016-12-11T04:58:42.342Z,0
2016-12-11T04:59:42.323Z,0
2016-12-11T05:00:42.321Z,0
2016-12-11T05:01:42.303Z,0
2016-12-11T05:02:42.290Z,0
2016-12-11T05:03:42.293Z,0
2016-12-11T05:04:42.281Z,0
2016-12-11T05:05:42.267Z,0
2016-12-11T05:06:42.258Z,0
2016-12-11T05:07:42.257Z,0
2016-12-11T05:08:42.236Z,0
2016-12-11T05:09:42.238Z,0
2016-12-11T05:10:42.529Z,0
2016-12-11T05:11:42.219Z,0
2016-12-11T05:12:42.213Z,0
2016-12-11T05:13:42.200Z,0
2016-12-11T05:14:42.179Z,0
2016-12-11T05:15:42.182Z,0
2016-12-11T05:16:42.166Z,0
2016-12-11T05:17:42.153Z,0
2016-12-11T05:18:42.145Z,0
2016-12-11T05:19:42.135Z,0
2016-12-11T05:20:42.124Z,0
2016-12-11T05:21:42.120Z,0
2016-12-11T05:22:42.118Z,0
2016-12-11T05:23:42.096Z,0
2016-12-11T05:24:42.092Z,0
2016-12-11T05:25:42.081Z,0
2016-12-11T05:26:42.071Z,0
2016-12-11T05:27:42.062Z,0
2016-12-11T05:28:42.049Z,0
2016-12-11T05:29:42.032Z,0
2016-12-11T05:30:42.025Z,0
2016-12-11T05:31:42.017Z,0
2016-12-11T05:32:42.007Z,0
2016-12-11T05:33:41.997Z,0
2016-12-11T05:34:41.989Z,0
2016-12-11T05:35:41.979Z,0
2016-12-11T05:36:41.968Z,0
2016-12-11T05:37:41.974Z,0
2016-12-11T05:38:41.948Z,0
2016-12-11T05:39:42.242Z,0
2016-12-11T05:40:41.962Z,0
2016-12-11T05:41:41.926Z,0
2016-12-11T05:42:41.911Z,0
2016-12-11T05:43:41.906Z,0
2016-12-11T05:44:42.190Z,0
2016-12-11T05:45:41.882Z,0
2016-12-11T05:46:41.879Z,0
2016-12-11T05:47:41.870Z,0
2016-12-11T05:48:41.855Z,0
2016-12-11T05:49:41.838Z,0
2016-12-11T05:50:41.835Z,0
2016-12-11T05:51:41.822Z,0
2016-12-11T05:52:41.815Z,0
2016-12-11T05:53:41.809Z,0
2016-12-11T05:54:41.799Z,0
2016-12-11T05:55:41.785Z,0
2016-12-11T05:56:41.788Z,0
2016-12-11T05:57:41.771Z,0
2016-12-11T05:58:42.087Z,0
2016-12-11T05:59:41.752Z,0
2016-12-11T06:00:41.748Z,0
2016-12-11T06:01:41.725Z,0
2016-12-11T06:02:41.716Z,0
2016-12-11T06:03:41.705Z,0
2016-12-11T06:04:41.692Z,0
2016-12-11T06:05:41.691Z,0
2016-12-11T06:06:41.688Z,0
2016-12-11T06:07:41.668Z,0
2016-12-11T06:08:41.659Z,0
2016-12-11T06:09:41.662Z,0
2016-12-11T06:10:41.631Z,0
2016-12-11T06:11:41.636Z,0
2016-12-11T06:12:41.625Z,0
2016-12-11T06:13:41.617Z,0
2016-12-11T06:14:41.600Z,0
2016-12-11T06:15:41.597Z,0
2016-12-11T06:16:41.589Z,0
2016-12-11T06:17:41.574Z,0
2016-12-11T06:18:41.567Z,0
2016-12-11T06:19:41.559Z,0
2016-12-11T06:20:41.556Z,0
2016-12-11T06:21:41.529Z,0
2016-12-11T06:22:41.523Z,0
2016-12-11T06:23:41.525Z,0
2016-12-11T06:24:41.505Z,0
2016-12-11T06:25:41.507Z,0
2016-12-11T06:26:41.487Z,0
2016-12-11T06:27:41.475Z,0
2016-12-11T06:28:41.465Z,0
2016-12-11T06:29:41.463Z,0
2016-12-11T06:30:41.453Z,0
2016-12-11T06:31:41.438Z,0
2016-12-11T06:32:41.439Z,0
2016-12-11T06:33:41.424Z,0
2016-12-11T06:34:41.408Z,0
2016-12-11T06:35:41.402Z,0
2016-12-11T06:36:41.395Z,0
2016-12-11T06:37:41.380Z,0
2016-12-11T06:38:41.369Z,0
2016-12-11T06:39:41.363Z,0
2016-12-11T06:40:41.357Z,0
2016-12-11T06:41:41.341Z,0
2016-12-11T06:42:41.329Z,0
2016-12-11T06:43:41.323Z,0
2016-12-11T06:44:41.318Z,0
2016-12-11T06:45:41.319Z,0
2016-12-11T06:46:41.295Z,0
2016-12-11T06:47:41.283Z,0
2016-12-11T06:48:41.273Z,0
2016-12-11T06:49:41.267Z,0
2016-12-11T06:50:41.255Z,0
2016-12-11T06:51:41.244Z,0
2016-12-11T06:52:41.244Z,0
2016-12-11T06:53:41.232Z,0
2016-12-11T06:54:41.217Z,0
2016-12-11T06:55:41.210Z,0
2016-12-11T06:56:41.197Z,0
2016-12-11T06:57:41.188Z,0
2016-12-11T06:58:41.184Z,0
2016-12-11T06:59:41.167Z,0
2016-12-11T07:00:41.168Z,0
2016-12-11T07:01:41.149Z,0
2016-12-11T07:02:41.138Z,0
2016-12-11T07:03:41.130Z,0
2016-12-11T07:04:41.116Z,0
2016-12-11T07:05:41.105Z,0
2016-12-11T07:06:41.102Z,0
2016-12-11T07:07:41.096Z,0
2016-12-11T07:08:41.087Z,0
2016-12-11T07:09:41.069Z,0
2016-12-11T07:10:41.064Z,0
2016-12-11T07:11:41.052Z,0
2016-12-11T07:12:41.049Z,0
2016-12-11T07:13:41.036Z,0
2016-12-11T07:14:41.026Z,0
2016-12-11T07:15:41.040Z,0
2016-12-11T07:16:41.005Z,0
2016-12-11T07:17:41.005Z,0
2016-12-11T07:18:40.994Z,0
2016-12-11T07:19:40.973Z,0
2016-12-11T07:20:40.974Z,0
2016-12-11T07:21:40.967Z,0
2016-12-11T07:22:41.254Z,0
2016-12-11T07:23:41.249Z,0
2016-12-11T07:24:40.933Z,0
2016-12-11T07:25:40.924Z,0
2016-12-11T07:26:40.905Z,0
2016-12-11T07:27:40.899Z,0
2016-12-11T07:28:40.920Z,0
2016-12-11T07:29:40.877Z,0
2016-12-11T07:30:40.870Z,0
2016-12-11T07:31:40.869Z,0
2016-12-11T07:32:40.851Z,0
2016-12-11T07:33:40.846Z,0
2016-12-11T07:34:40.837Z,0
2016-12-11T07:35:40.827Z,0
2016-12-11T07:36:40.814Z,0
2016-12-11T07:37:40.805Z,0
2016-12-11T07:38:40.799Z,0
2016-12-11T07:39:40.787Z,0
2016-12-11T07:40:40.783Z,5
2016-12-11T07:41:40.766Z,5
2016-12-11T07:42:40.748Z,5
2016-12-11T07:43:40.748Z,5
2016-12-11T07:44:40.739Z,5
2016-12-11T07:45:40.720Z,5
2016-12-11T07:46:40.712Z,5
2016-12-11T07:47:40.711Z,5
2016-12-11T07:48:40.711Z,5
2016-12-11T07:49:41.001Z,5
2016-12-11T07:50:40.681Z,10
2016-12-11T07:51:40.691Z,10
2016-12-11T07:52:40.669Z,10
2016-12-11T07:53:40.648Z,10
2016-12-11T07:54:40.642Z,5
2016-12-11T07:55:40.640Z,5
2016-12-11T07:56:40.625Z,5
2016-12-11T07:57:40.617Z,5
2016-12-11T07:58:40.605Z,10
2016-12-11T07:59:40.594Z,10
2016-12-11T08:00:40.590Z,10
2016-12-11T08:01:40.576Z,15
2016-12-11T08:02:40.577Z,15
2016-12-11T08:03:40.560Z,15
2016-12-11T08:04:40.550Z,15
2016-12-11T08:05:40.548Z,15
2016-12-11T08:06:40.529Z,20
2016-12-11T08:07:40.547Z,20
2016-12-11T08:08:40.518Z,15
2016-12-11T08:09:40.506Z,20
2016-12-11T08:10:40.491Z,25
2016-12-11T08:11:40.493Z,25
2016-12-11T08:12:40.476Z,25
2016-12-11T08:13:40.463Z,25
2016-12-11T08:14:40.457Z,25
2016-12-11T08:15:40.482Z,15
2016-12-11T08:16:40.438Z,20
2016-12-11T08:17:40.433Z,15
2016-12-11T08:18:40.421Z,20
2016-12-11T08:19:40.411Z,15
2016-12-11T08:20:40.401Z,25
2016-12-11T08:21:40.393Z,30
2016-12-11T08:22:40.385Z,25
2016-12-11T08:23:40.370Z,30
2016-12-11T08:24:40.362Z,20
2016-12-11T08:25:40.354Z,15
2016-12-11T08:26:40.355Z,15
2016-12-11T08:27:40.346Z,15
2016-12-11T08:28:40.324Z,20
2016-12-11T08:29:40.318Z,25
2016-12-11T08:30:40.309Z,25
2016-12-11T08:31:40.299Z,30
2016-12-11T08:32:40.294Z,25
2016-12-11T08:33:40.287Z,25
2016-12-11T08:34:40.267Z,20
2016-12-11T08:35:40.263Z,20
2016-12-11T08:36:40.259Z,20
2016-12-11T08:37:40.239Z,25
2016-12-11T08:38:40.229Z,25
2016-12-11T08:39:40.229Z,25
2016-12-11T08:40:40.211Z,30
2016-12-11T08:41:40.203Z,25
2016-12-11T08:42:40.217Z,45
2016-12-11T08:43:40.186Z,45
2016-12-11T08:44:40.214Z,55
2016-12-11T08:45:40.169Z,70
2016-12-11T08:46:40.160Z,80
2016-12-11T08:47:40.153Z,55
2016-12-11T08:48:40.144Z,45
2016-12-11T08:49:40.130Z,35
2016-12-11T08:50:40.123Z,30
2016-12-11T08:51:40.126Z,25
2016-12-11T08:52:40.099Z,25
2016-12-11T08:53:40.123Z,25
2016-12-11T08:54:40.080Z,25
2016-12-11T08:55:40.076Z,25
2016-12-11T08:56:40.069Z,25
2016-12-11T08:57:40.371Z,30
2016-12-11T08:58:40.052Z,25
2016-12-11T08:59:40.036Z,25
2016-12-11T09:00:40.034Z,40
2016-12-11T09:01:40.022Z,45
2016-12-11T09:02:40.008Z,35
2016-12-11T09:03:40.006Z,30
2016-12-11T09:04:40.025Z,30
2016-12-11T09:05:39.987Z,25
2016-12-11T09:06:39.980Z,25
2016-12-11T09:07:39.976Z,25
2016-12-11T09:08:39.962Z,25
2016-12-11T09:09:39.955Z,25
2016-12-11T09:10:39.930Z,20
2016-12-11T09:11:39.936Z,15
2016-12-11T09:12:40.217Z,15
2016-12-11T09:13:39.920Z,10
2016-12-11T09:14:39.905Z,10
2016-12-11T09:15:39.899Z,15
2016-12-11T09:16:40.233Z,15
2016-12-11T09:17:39.874Z,15
2016-12-11T09:18:39.870Z,10
2016-12-11T09:19:40.161Z,10
2016-12-11T09:20:39.852Z,10
2016-12-11T09:21:39.869Z,10
2016-12-11T09:22:39.838Z,10
2016-12-11T09:23:39.821Z,10
2016-12-11T09:24:39.815Z,10
2016-12-11T09:25:39.811Z,10
2016-12-11T09:26:39.799Z,15
2016-12-11T09:27:39.795Z,25
2016-12-11T09:28:39.777Z,30
2016-12-11T09:29:39.767Z,25
2016-12-11T09:30:39.765Z,20
2016-12-11T09:31:39.750Z,20
2016-12-11T09:32:39.747Z,20
2016-12-11T09:33:40.031Z,25
2016-12-11T09:34:40.027Z,20
2016-12-11T09:35:39.718Z,20
2016-12-11T09:36:39.710Z,20
2016-12-11T09:37:39.710Z,15
2016-12-11T09:38:39.685Z,15
2016-12-11T09:39:39.675Z,15
2016-12-11T09:40:39.672Z,20
2016-12-11T09:41:39.661Z,20
2016-12-11T09:42:39.663Z,10
2016-12-11T09:43:39.643Z,15
2016-12-11T09:44:39.627Z,15
2016-12-11T09:45:39.624Z,15
2016-12-11T09:46:39.915Z,15
2016-12-11T09:47:39.610Z,20
2016-12-11T09:48:39.609Z,30
2016-12-11T09:49:39.597Z,30
2016-12-11T09:50:39.584Z,40
2016-12-11T09:51:39.572Z,40
2016-12-11T09:52:39.567Z,70
2016-12-11T09:53:39.558Z,70
2016-12-11T09:54:39.547Z,65
2016-12-11T09:55:39.536Z,30
2016-12-11T09:56:39.534Z,25
2016-12-11T09:57:39.519Z,20
2016-12-11T09:58:39.514Z,35
2016-12-11T09:59:39.499Z,35
2016-12-11T10:00:39.517Z,45
2016-12-11T10:01:39.478Z,55
2016-12-11T10:02:39.468Z,35
2016-12-11T10:03:39.474Z,40
2016-12-11T10:04:39.459Z,35
2016-12-11T10:05:39.444Z,50
2016-12-11T10:06:39.441Z,60
2016-12-11T10:07:39.435Z,65
2016-12-11T10:08:39.418Z,65
2016-12-11T10:09:39.408Z,190
2016-12-11T10:10:39.411Z,265
2016-12-11T10:11:39.399Z,305
2016-12-11T10:12:39.381Z,275
2016-12-11T10:13:39.391Z,290
2016-12-11T10:14:39.364Z,180
2016-12-11T10:15:39.377Z,95
2016-12-11T10:16:39.369Z,75
2016-12-11T10:17:39.341Z,105
2016-12-11T10:18:39.337Z,145
2016-12-11T10:19:39.319Z,145
2016-12-11T10:20:39.317Z,85
2016-12-11T10:21:39.308Z,65
2016-12-11T10:22:39.329Z,85
2016-12-11T10:23:39.305Z,70
2016-12-11T10:24:39.290Z,85
2016-12-11T10:25:39.272Z,75
2016-12-11T10:26:39.271Z,40
2016-12-11T10:27:39.256Z,30
2016-12-11T10:28:39.248Z,50
2016-12-11T10:29:39.229Z,55
2016-12-11T10:30:39.233Z,90
2016-12-11T10:31:39.221Z,75
2016-12-11T10:32:39.215Z,95
2016-12-11T10:33:39.202Z,125
2016-12-11T10:34:39.193Z,165
2016-12-11T10:35:39.183Z,170
2016-12-11T10:36:39.183Z,190
2016-12-11T10:37:39.165Z,230
2016-12-11T10:38:39.152Z,155
2016-12-11T10:39:39.152Z,150
2016-12-11T10:40:39.140Z,120
2016-12-11T10:41:39.136Z,95
2016-12-11T10:42:39.155Z,90
2016-12-11T10:43:39.115Z,100
2016-12-11T10:44:39.402Z,95
2016-12-11T10:45:39.100Z,100
2016-12-11T10:46:39.085Z,150
2016-12-11T10:47:39.069Z,105
2016-12-11T10:48:39.074Z,90
2016-12-11T10:49:39.055Z,140
2016-12-11T10:50:39.075Z,185
2016-12-11T10:51:39.042Z,170
2016-12-11T10:52:39.032Z,200
2016-12-11T10:53:39.025Z,145
2016-12-11T10:54:39.018Z,120
2016-12-11T10:55:39.002Z,155
2016-12-11T10:56:38.997Z,200
2016-12-11T10:57:38.985Z,170
2016-12-11T10:58:38.982Z,210
2016-12-11T10:59:38.965Z,220
2016-12-11T11:00:38.960Z,175
2016-12-11T11:01:38.950Z,160
2016-12-11T11:02:39.238Z,185
2016-12-11T11:03:38.932Z,180
2016-12-11T11:04:38.929Z,155
2016-12-11T11:05:38.916Z,115
2016-12-11T11:06:38.908Z,145
2016-12-11T11:07:38.894Z,100
2016-12-11T11:08:38.884Z,90
2016-12-11T11:09:38.885Z,90
2016-12-11T11:10:38.866Z,85
2016-12-11T11:11:38.888Z,95
2016-12-11T11:12:38.846Z,110
2016-12-11T11:13:38.834Z,100
2016-12-11T11:14:38.860Z,90
2016-12-11T11:15:38.829Z,90
2016-12-11T11:16:38.805Z,85
2016-12-11T11:17:38.804Z,115
2016-12-11T11:18:38.796Z,75
2016-12-11T11:19:38.786Z,75
2016-12-11T11:20:39.069Z,75
2016-12-11T11:21:38.790Z,65
2016-12-11T11:22:38.759Z,65
2016-12-11T11:23:38.744Z,70
2016-12-11T11:24:38.734Z,75
2016-12-11T11:25:38.720Z,65
2016-12-11T11:26:38.712Z,80
2016-12-11T11:27:38.707Z,115
2016-12-11T11:28:38.692Z,135
2016-12-11T11:29:38.684Z,160
2016-12-11T11:30:38.678Z,130
2016-12-11T11:31:38.662Z,125
2016-12-11T11:32:38.661Z,110
2016-12-11T11:33:38.659Z,110
2016-12-11T11:34:38.659Z,90
2016-12-11T11:35:38.630Z,85
2016-12-11T11:36:38.620Z,95
2016-12-11T11:37:38.619Z,105
2016-12-11T11:38:38.600Z,100
2016-12-11T11:39:38.593Z,105
2016-12-11T11:40:38.586Z,105
2016-12-11T11:41:38.568Z,70
2016-12-11T11:42:38.565Z,70
2016-12-11T11:43:38.555Z,75
2016-12-11T11:44:38.548Z,80
2016-12-11T11:45:38.539Z,130
2016-12-11T11:46:38.532Z,115
2016-12-11T11:47:38.519Z,115
2016-12-11T11:48:38.517Z,80
2016-12-11T11:49:38.499Z,85
2016-12-11T11:50:38.489Z,75
2016-12-11T11:51:38.480Z,80
2016-12-11T11:52:38.472Z,85
2016-12-11T11:53:38.460Z,75
2016-12-11T11:54:38.467Z,85
2016-12-11T11:55:38.451Z,140
2016-12-11T11:56:38.430Z,155
2016-12-11T11:57:38.424Z,165
2016-12-11T11:58:38.417Z,155
2016-12-11T11:59:38.410Z,155
2016-12-11T12:00:38.397Z,175
2016-12-11T12:01:38.386Z,165
2016-12-11T12:02:38.367Z,170
2016-12-11T12:03:38.371Z,225
2016-12-11T12:04:38.352Z,210
2016-12-11T12:05:38.352Z,165
2016-12-11T12:06:38.367Z,185
2016-12-11T12:07:38.328Z,175
2016-12-11T12:08:38.325Z,165
2016-12-11T12:09:38.310Z,130
2016-12-11T12:10:38.633Z,110
2016-12-11T12:11:38.284Z,125
2016-12-11T12:12:38.288Z,120
2016-12-11T12:13:38.282Z,95
2016-12-11T12:14:38.269Z,95
2016-12-11T12:15:38.258Z,105
2016-12-11T12:16:38.245Z,115
2016-12-11T12:17:38.241Z,145
2016-12-11T12:18:38.239Z,145
2016-12-11T12:19:38.224Z,110
2016-12-11T12:20:38.222Z,120
2016-12-11T12:21:38.201Z,125
2016-12-11T12:22:38.192Z,115
2016-12-11T12:23:38.176Z,105
2016-12-11T12:24:38.482Z,115
2016-12-11T12:25:38.171Z,90
2016-12-11T12:26:38.161Z,75
2016-12-11T12:27:38.142Z,70
2016-12-11T12:28:38.140Z,70
2016-12-11T12:29:38.132Z,75
2016-12-11T12:30:38.132Z,60
2016-12-11T12:31:38.115Z,55
2016-12-11T12:32:38.114Z,50
2016-12-11T12:33:38.099Z,75
2016-12-11T12:34:38.089Z,75
2016-12-11T12:35:38.079Z,70
2016-12-11T12:36:38.066Z,70
2016-12-11T12:37:38.054Z,70
2016-12-11T12:38:38.047Z,70
2016-12-11T12:39:38.039Z,70
2016-12-11T12:40:38.035Z,55
2016-12-11T12:41:38.018Z,65
2016-12-11T12:42:38.015Z,55
2016-12-11T12:43:38.010Z,45
2016-12-11T12:44:38.002Z,40
2016-12-11T12:45:38.300Z,35
2016-12-11T12:46:37.981Z,30
2016-12-11T12:47:37.974Z,30
2016-12-11T12:48:37.965Z,35
2016-12-11T12:49:37.959Z,35
2016-12-11T12:50:38.245Z,30
2016-12-11T12:51:37.933Z,30
2016-12-11T12:52:37.919Z,30
2016-12-11T12:53:37.921Z,35
2016-12-11T12:54:37.904Z,40
2016-12-11T12:55:37.907Z,50
2016-12-11T12:56:37.884Z,50
2016-12-11T12:57:37.879Z,50
2016-12-11T12:58:37.873Z,50
2016-12-11T12:59:37.868Z,65
2016-12-11T13:00:37.854Z,65
2016-12-11T13:01:38.141Z,65
2016-12-11T13:02:37.836Z,80
2016-12-11T13:03:37.827Z,70
2016-12-11T13:04:38.115Z,60
2016-12-11T13:05:38.131Z,60
2016-12-11T13:06:37.790Z,60
2016-12-11T13:07:37.786Z,55
2016-12-11T13:08:38.071Z,60
2016-12-11T13:09:38.069Z,50
2016-12-11T13:10:37.759Z,60
2016-12-11T13:11:38.045Z,75
2016-12-11T13:12:37.736Z,80
2016-12-11T13:13:37.720Z,70
2016-12-11T13:14:37.716Z,60
2016-12-11T13:15:37.709Z,65
2016-12-11T13:16:37.703Z,75
2016-12-11T13:17:37.693Z,85
2016-12-11T13:18:37.682Z,80
2016-12-11T13:19:37.678Z,80
2016-12-11T13:20:37.668Z,70
2016-12-11T13:21:37.650Z,70
2016-12-11T13:22:37.640Z,65
2016-12-11T13:23:37.628Z,70
2016-12-11T13:24:37.635Z,70
2016-12-11T13:25:37.607Z,65
2016-12-11T13:26:37.602Z,60
2016-12-11T13:27:37.887Z,75
2016-12-11T13:28:37.591Z,65
2016-12-11T13:29:37.584Z,55
2016-12-11T13:30:37.574Z,50
2016-12-11T13:31:37.557Z,60
2016-12-11T13:32:37.547Z,65
2016-12-11T13:33:37.546Z,65
2016-12-11T13:34:37.532Z,75
2016-12-11T13:35:37.524Z,75
2016-12-11T13:36:37.521Z,80
2016-12-11T13:37:37.500Z,75
2016-12-11T13:38:37.492Z,65
2016-12-11T13:39:37.489Z,55
2016-12-11T13:40:37.472Z,55
2016-12-11T13:41:37.465Z,55
2016-12-11T13:42:37.449Z,35
2016-12-11T13:43:37.448Z,35
2016-12-11T13:44:37.443Z,55
2016-12-11T13:45:37.742Z,85
2016-12-11T13:46:37.413Z,75
2016-12-11T13:47:37.706Z,55
2016-12-11T13:48:37.407Z,50
2016-12-11T13:49:37.386Z,45
2016-12-11T13:50:37.993Z,45
2016-12-11T13:51:37.385Z,30
2016-12-11T13:52:37.368Z,25
2016-12-11T13:53:37.358Z,20
2016-12-11T13:54:37.353Z,15
2016-12-11T13:55:37.340Z,15
2016-12-11T13:56:37.625Z,15
2016-12-11T13:57:37.322Z,15
2016-12-11T13:58:37.610Z,15
2016-12-11T13:59:37.606Z,15
2016-12-11T14:00:37.291Z,20
2016-12-11T14:01:37.277Z,25
2016-12-11T14:02:37.580Z,35
2016-12-11T14:03:37.259Z,35
2016-12-11T14:04:37.250Z,35
2016-12-11T14:05:37.241Z,30
2016-12-11T14:06:37.234Z,25
2016-12-11T14:07:37.221Z,20
2016-12-11T14:08:37.216Z,15
2016-12-11T14:09:37.542Z,20
2016-12-11T14:10:37.203Z,30
2016-12-11T14:11:37.496Z,30
2016-12-11T14:12:37.179Z,30
2016-12-11T14:13:37.165Z,30
2016-12-11T14:14:37.153Z,30
2016-12-11T14:15:37.170Z,25
2016-12-11T14:16:37.139Z,20
2016-12-11T14:17:37.129Z,20
2016-12-11T14:18:37.126Z,20
2016-12-11T14:19:37.115Z,20
2016-12-11T14:20:37.110Z,15
2016-12-11T14:21:37.097Z,15
2016-12-11T14:22:37.089Z,10
2016-12-11T14:23:37.073Z,10
2016-12-11T14:24:37.061Z,10
2016-12-11T14:25:37.052Z,5
2016-12-11T14:26:37.368Z,5
2016-12-11T14:27:37.038Z,10
2016-12-11T14:28:37.024Z,10
2016-12-11T14:29:37.022Z,10